Time;durP1;ratioP1;P1;durP2;ratioP2;P2;SDS_P1;SDS_P2;PMS_P1;PMS_P2;Temp;Humidity;BMP_temperature;BMP_pressure;BME280_temperature;BME280_humidity;BME280_pressure;Samples;Min_cycle;Max_cycle;Signal;HPM_P1;HPM_P2
2022/12/06 00:01:45;;;;;;;241.88;75.93;;;;;;;;;;6334023;28;20071;-68
2022/12/06 00:04:46;;;;;;;221.13;74.28;;;;;;;;;;6336076;28;20490;-62
2022/12/06 00:07:46;;;;;;;231.10;74.93;;;;;;;;;;6318083;28;20040;-74
2022/12/06 00:10:47;;;;;;;221.95;75.70;;;;;;;;;;6316671;28;20048;-62
2022/12/06 00:13:52;;;;;;;234.93;78.57;;;;;;;;;;6315635;28;20055;-69
2022/12/06 00:16:53;;;;;;;254.80;81.38;;;;;;;;;;6318382;28;20115;-62
2022/12/06 00:19:53;;;;;;;242.65;79.43;;;;;;;;;;6320309;28;20044;-75
2022/12/06 00:22:54;;;;;;;250.80;84.10;;;;;;;;;;6314770;28;20083;-62
2022/12/06 00:25:54;;;;;;;256.25;84.57;;;;;;;;;;6316856;28;20032;-67
2022/12/06 00:28:57;;;;;;;254.40;83.75;;;;;;;;;;6316560;28;20471;-62
2022/12/06 00:31:58;;;;;;;263.98;87.40;;;;;;;;;;6314896;28;20059;-72
2022/12/06 00:34:58;;;;;;;259.48;87.57;;;;;;;;;;6317896;28;20145;-71
2022/12/06 00:38:00;;;;;;;246.83;86.27;;;;;;;;;;6316408;28;20116;-66
2022/12/06 00:41:12;;;;;;;272.10;88.60;;;;;;;;;;6316057;28;20048;-71
2022/12/06 00:44:13;;;;;;;300.63;102.75;;;;;;;;;;6314732;28;20047;-62
2022/12/06 00:47:13;;;;;;;298.98;98.78;;;;;;;;;;6315981;28;20730;-70
2022/12/06 00:50:14;;;;;;;283.92;95.82;;;;;;;;;;6316721;28;20440;-72
2022/12/06 00:53:15;;;;;;;262.05;91.68;;;;;;;;;;6313885;28;20490;-62
2022/12/06 00:56:16;;;;;;;282.42;92.25;;;;;;;;;;6321267;28;20048;-63
2022/12/06 00:59:17;;;;;;;264.95;87.80;;;;;;;;;;6321521;28;20044;-63
2022/12/06 01:02:18;;;;;;;265.33;88.57;;;;;;;;;;6319904;28;20737;-70
2022/12/06 01:05:18;;;;;;;270.05;88.38;;;;;;;;;;6319435;28;20075;-70
2022/12/06 01:08:19;;;;;;;259.35;88.72;;;;;;;;;;6320978;28;20044;-72
2022/12/06 01:11:21;;;;;;;270.38;85.90;;;;;;;;;;6320332;28;20044;-73
2022/12/06 01:14:21;;;;;;;269.30;87.10;;;;;;;;;;6319938;28;20040;-63
2022/12/06 01:17:22;;;;;;;276.48;92.43;;;;;;;;;;6320836;28;20811;-69
2022/12/06 01:20:23;;;;;;;275.20;91.20;;;;;;;;;;6321094;28;20044;-70
2022/12/06 01:23:23;;;;;;;282.10;93.00;;;;;;;;;;6318621;28;20371;-68
2022/12/06 01:26:30;;;;;;;282.02;93.90;;;;;;;;;;6320980;28;20040;-63
2022/12/06 01:29:31;;;;;;;274.38;91.85;;;;;;;;;;6320346;28;20059;-62
2022/12/06 01:32:32;;;;;;;295.15;98.45;;;;;;;;;;6319050;28;20475;-63
2022/12/06 01:35:32;;;;;;;299.23;99.60;;;;;;;;;;6323092;28;20035;-62
2022/12/06 01:38:33;;;;;;;273.85;95.85;;;;;;;;;;6320076;28;20040;-63
2022/12/06 01:41:34;;;;;;;285.23;96.40;;;;;;;;;;6320115;28;20052;-62
2022/12/06 01:44:49;;;;;;;300.90;99.25;;;;;;;;;;6318980;28;20528;-62
2022/12/06 01:47:50;;;;;;;313.85;105.20;;;;;;;;;;6320440;28;20482;-62
2022/12/06 01:50:51;;;;;;;314.85;102.93;;;;;;;;;;6320560;28;20044;-62
2022/12/06 01:53:52;;;;;;;291.33;98.63;;;;;;;;;;6316545;28;20109;-62
2022/12/06 01:56:54;;;;;;;297.20;95.38;;;;;;;;;;6321222;28;20070;-62
2022/12/06 01:59:55;;;;;;;289.85;96.72;;;;;;;;;;6320482;28;20046;-62
2022/12/06 02:02:59;;;;;;;285.23;93.60;;;;;;;;;;6318819;28;20475;-62
2022/12/06 02:06:04;;;;;;;255.40;83.70;;;;;;;;;;6318727;28;20050;-62
2022/12/06 02:09:07;;;;;;;237.43;82.18;;;;;;;;;;6318412;28;20115;-62
2022/12/06 02:12:13;;;;;;;217.88;71.50;;;;;;;;;;6332244;28;20047;-62
2022/12/06 02:15:13;;;;;;;220.77;72.15;;;;;;;;;;6322365;28;20136;-62
2022/12/06 02:18:23;;;;;;;217.80;68.65;;;;;;;;;;6323501;28;20047;-69
2022/12/06 02:21:45;;;;;;;213.10;68.63;;;;;;;;;;6324906;28;20044;-62
2022/12/06 02:25:09;;;;;;;210.15;63.35;;;;;;;;;;6320111;28;20379;-62
2022/12/06 02:28:43;;;;;;;195.85;60.65;;;;;;;;;;6324391;28;20039;-62
2022/12/06 02:32:08;;;;;;;188.30;60.03;;;;;;;;;;6341029;28;20417;-63
2022/12/06 02:35:32;;;;;;;202.30;63.20;;;;;;;;;;6326335;28;20048;-63
2022/12/06 02:38:52;;;;;;;191.40;60.47;;;;;;;;;;6321584;28;20056;-62
2022/12/06 02:42:05;;;;;;;193.15;62.70;;;;;;;;;;6320264;28;20109;-63
2022/12/06 02:45:13;;;;;;;187.30;58.55;;;;;;;;;;6320795;28;20040;-67
2022/12/06 02:48:14;;;;;;;193.57;59.88;;;;;;;;;;6339445;28;20109;-62
2022/12/06 02:51:18;;;;;;;184.05;58.88;;;;;;;;;;6321895;28;20054;-62
2022/12/06 02:54:20;;;;;;;181.73;55.95;;;;;;;;;;6320670;27;20135;-62
2022/12/06 02:57:33;;;;;;;179.73;55.22;;;;;;;;;;6329889;28;20055;-62
2022/12/06 03:00:34;;;;;;;183.93;54.65;;;;;;;;;;6321840;28;20474;-62
2022/12/06 03:04:12;;;;;;;189.48;59.25;;;;;;;;;;6321043;28;20075;-62
2022/12/06 03:07:37;;;;;;;187.70;56.85;;;;;;;;;;6318911;28;20679;-67
2022/12/06 03:10:45;;;;;;;184.70;55.03;;;;;;;;;;6342589;28;20058;-63
2022/12/06 03:13:53;;;;;;;183.88;56.70;;;;;;;;;;6329377;27;20059;-73
2022/12/06 03:17:03;;;;;;;177.18;55.20;;;;;;;;;;6337382;28;20057;-65
2022/12/06 03:20:12;;;;;;;190.70;55.88;;;;;;;;;;6328574;28;20084;-62
2022/12/06 03:23:20;;;;;;;177.95;55.35;;;;;;;;;;6320465;28;20075;-62
2022/12/06 03:26:26;;;;;;;173.63;51.47;;;;;;;;;;6325213;28;20127;-62
2022/12/06 03:29:30;;;;;;;182.25;51.90;;;;;;;;;;6320735;28;20043;-63
2022/12/06 03:32:33;;;;;;;171.98;53.03;;;;;;;;;;6319767;28;20056;-62
2022/12/06 03:35:36;;;;;;;169.70;52.40;;;;;;;;;;6341519;28;20564;-69
2022/12/06 03:38:44;;;;;;;163.68;52.95;;;;;;;;;;6324499;28;20129;-62
2022/12/06 03:41:51;;;;;;;175.35;53.40;;;;;;;;;;6319452;28;20051;-62
2022/12/06 03:44:52;;;;;;;161.68;50.13;;;;;;;;;;6319476;28;20161;-62
2022/12/06 03:48:09;;;;;;;170.10;57.70;;;;;;;;;;6320185;28;20052;-62
2022/12/06 03:51:32;;;;;;;161.45;50.97;;;;;;;;;;6318753;28;20047;-62
2022/12/06 03:54:32;;;;;;;167.57;51.05;;;;;;;;;;6318624;28;20043;-68
2022/12/06 03:57:34;;;;;;;151.63;49.85;;;;;;;;;;6319848;28;20048;-63
2022/12/06 04:00:34;;;;;;;161.47;52.77;;;;;;;;;;6324525;28;20043;-62
2022/12/06 04:03:35;;;;;;;151.13;47.70;;;;;;;;;;6340255;28;20368;-63
2022/12/06 04:06:36;;;;;;;147.10;48.40;;;;;;;;;;6320510;28;20048;-62
2022/12/06 04:09:51;;;;;;;147.70;48.95;;;;;;;;;;6318796;28;21040;-62
2022/12/06 04:13:01;;;;;;;152.48;48.90;;;;;;;;;;6320935;28;20047;-62
2022/12/06 04:16:03;;;;;;;150.07;49.97;;;;;;;;;;6338077;28;20058;-62
2022/12/06 04:19:03;;;;;;;154.82;51.83;;;;;;;;;;6318829;28;20040;-62
2022/12/06 04:25:23;;;;;;;172.27;54.63;;;;;;;;;;6319951;28;20047;-65
2022/12/06 04:45:00;;;;;;;160.68;53.70;;;;;;;;;;6319302;28;20054;-62
2022/12/06 04:48:02;;;;;;;158.32;53.30;;;;;;;;;;6318808;28;20048;-62
2022/12/06 04:51:03;;;;;;;155.45;52.42;;;;;;;;;;6332295;28;20051;-61
2022/12/06 04:54:04;;;;;;;156.55;54.47;;;;;;;;;;6317599;28;20047;-62
2022/12/06 04:57:09;;;;;;;169.38;51.63;;;;;;;;;;6316967;28;20134;-64
2022/12/06 05:00:10;;;;;;;157.05;50.83;;;;;;;;;;6315008;28;20605;-62
2022/12/06 05:03:13;;;;;;;197.70;59.63;;;;;;;;;;6316564;28;20040;-62
2022/12/06 05:06:13;;;;;;;;;;;;;;;;;;6324951;28;20048;-62
2022/12/06 05:09:14;;;;;;;169.27;49.78;;;;;;;;;;6336989;28;19919;-62
2022/12/06 05:12:16;;;;;;;138.23;44.03;;;;;;;;;;6316376;28;20048;-62
2022/12/06 05:15:17;;;;;;;141.77;46.17;;;;;;;;;;6318607;28;20051;-62
2022/12/06 05:18:17;;;;;;;134.40;43.65;;;;;;;;;;6319145;28;20501;-66
2022/12/06 05:21:21;;;;;;;139.85;46.05;;;;;;;;;;6326297;28;20044;-62
2022/12/06 05:24:21;;;;;;;155.30;49.65;;;;;;;;;;6317838;28;20047;-62
2022/12/06 05:27:22;;;;;;;160.02;53.15;;;;;;;;;;6321027;28;20036;-66
2022/12/06 05:30:22;;;;;;;154.25;48.75;;;;;;;;;;6323580;28;20044;-62
2022/12/06 05:33:24;;;;;;;144.10;45.92;;;;;;;;;;6331121;28;20517;-68
2022/12/06 05:36:26;;;;;;;139.35;45.28;;;;;;;;;;6317099;28;20491;-62
2022/12/06 05:39:28;;;;;;;143.82;46.97;;;;;;;;;;6316091;28;20054;-62
2022/12/06 05:42:28;;;;;;;133.80;46.60;;;;;;;;;;6320961;28;20413;-67
2022/12/06 05:45:29;;;;;;;141.68;47.53;;;;;;;;;;6321939;28;20071;-62
2022/12/06 05:48:29;;;;;;;147.80;50.72;;;;;;;;;;6320990;28;20507;-63
2022/12/06 05:51:30;;;;;;;134.60;46.88;;;;;;;;;;6320013;28;20125;-63
2022/12/06 05:54:31;;;;;;;139.45;48.22;;;;;;;;;;6327493;28;20521;-61
2022/12/06 05:57:31;;;;;;;139.27;47.80;;;;;;;;;;6329547;28;20067;-60
2022/12/06 06:00:32;;;;;;;137.13;46.97;;;;;;;;;;6325079;28;20406;-61
2022/12/06 06:03:33;;;;;;;137.23;47.78;;;;;;;;;;6335648;28;20451;-60
2022/12/06 06:06:34;;;;;;;169.27;53.95;;;;;;;;;;6333794;28;20060;-61
2022/12/06 06:09:35;;;;;;;198.18;53.22;;;;;;;;;;6319571;28;20046;-61
2022/12/06 06:12:35;;;;;;;170.88;52.50;;;;;;;;;;6320324;28;20047;-61
2022/12/06 06:15:36;;;;;;;142.43;48.00;;;;;;;;;;6322428;28;20452;-60
2022/12/06 06:18:36;;;;;;;145.05;48.40;;;;;;;;;;6331709;28;20052;-61
2022/12/06 06:21:37;;;;;;;153.90;53.30;;;;;;;;;;6319697;28;20056;-64
2022/12/06 06:24:39;;;;;;;143.77;48.50;;;;;;;;;;6320595;28;20044;-59
2022/12/06 06:27:40;;;;;;;;;;;;;;;;;;6335320;28;20059;-61
2022/12/06 06:30:41;;;;;;;127.65;43.33;;;;;;;;;;6335055;28;19928;-60
2022/12/06 06:33:41;;;;;;;125.88;43.40;;;;;;;;;;6333648;28;20055;-67
2022/12/06 06:36:42;;;;;;;132.13;51.88;;;;;;;;;;6332319;28;20043;-62
2022/12/06 06:39:42;;;;;;;128.30;51.65;;;;;;;;;;6335041;28;20047;-72
2022/12/06 06:42:43;;;;;;;130.45;47.67;;;;;;;;;;6336999;28;20043;-61
2022/12/06 06:45:54;;;;;;;127.57;48.45;;;;;;;;;;6334029;28;20147;-63
2022/12/06 06:48:55;;;;;;;120.50;46.78;;;;;;;;;;6324631;28;20048;-64
2022/12/06 06:51:55;;;;;;;127.38;45.08;;;;;;;;;;6329989;28;20066;-64
2022/12/06 06:54:56;;;;;;;122.22;45.33;;;;;;;;;;6319402;28;20060;-64
2022/12/06 06:57:56;;;;;;;124.60;45.50;;;;;;;;;;6327994;28;20130;-64
2022/12/06 07:00:59;;;;;;;120.45;46.75;;;;;;;;;;6318776;28;20367;-63
2022/12/06 07:04:00;;;;;;;128.15;48.30;;;;;;;;;;6325562;28;20093;-63
2022/12/06 07:07:00;;;;;;;132.00;50.53;;;;;;;;;;6327758;28;20051;-63
2022/12/06 07:10:01;;;;;;;135.85;50.70;;;;;;;;;;6320236;28;20494;-63
2022/12/06 07:13:01;;;;;;;145.00;52.38;;;;;;;;;;6327184;28;20051;-63
2022/12/06 07:16:04;;;;;;;158.48;54.40;;;;;;;;;;6320101;28;20071;-63
2022/12/06 07:19:04;;;;;;;169.35;59.35;;;;;;;;;;6324324;28;20410;-64
2022/12/06 07:22:05;;;;;;;181.57;61.08;;;;;;;;;;6329426;28;20078;-63
2022/12/06 07:25:06;;;;;;;189.13;63.70;;;;;;;;;;6320025;28;20044;-63
2022/12/06 07:28:06;;;;;;;157.55;56.40;;;;;;;;;;6332233;28;20044;-64
2022/12/06 07:31:11;;;;;;;137.13;50.17;;;;;;;;;;6321552;28;20036;-63
2022/12/06 07:34:12;;;;;;;126.65;45.85;;;;;;;;;;6328507;27;20052;-64
2022/12/06 07:37:13;;;;;;;133.05;48.67;;;;;;;;;;6319811;28;20414;-63
2022/12/06 07:40:15;;;;;;;124.80;47.37;;;;;;;;;;6317556;28;20046;-64
2022/12/06 07:46:35;;;;;;;124.10;47.25;;;;;;;;;;6321099;28;20048;-64
2022/12/06 07:49:36;;;;;;;125.70;48.92;;;;;;;;;;6318312;28;20048;-64
2022/12/06 07:52:36;;;;;;;122.57;48.05;;;;;;;;;;6320823;28;20852;-65
2022/12/06 07:55:37;;;;;;;126.85;47.83;;;;;;;;;;6318307;28;20047;-64
2022/12/06 07:58:37;;;;;;;122.95;48.40;;;;;;;;;;6322998;28;20114;-64
2022/12/06 08:01:38;;;;;;;144.40;51.28;;;;;;;;;;6321901;28;20084;-64
2022/12/06 08:04:39;;;;;;;154.05;56.85;;;;;;;;;;6317666;28;20387;-65
2022/12/06 08:07:40;;;;;;;167.30;58.97;;;;;;;;;;6324141;28;20043;-63
2022/12/06 08:10:40;;;;;;;159.75;58.72;;;;;;;;;;6317357;28;20051;-62
2022/12/06 08:13:41;;;;;;;158.38;58.30;;;;;;;;;;6324250;28;20067;-63
2022/12/06 08:16:41;;;;;;;158.15;60.33;;;;;;;;;;6325743;28;20592;-66
2022/12/06 08:19:42;;;;;;;142.02;53.05;;;;;;;;;;6317414;28;20055;-63
2022/12/06 08:22:43;;;;;;;140.50;52.67;;;;;;;;;;6325560;28;20043;-63
2022/12/06 08:25:43;;;;;;;167.07;60.33;;;;;;;;;;6317925;28;20044;-62
2022/12/06 08:28:44;;;;;;;167.70;60.88;;;;;;;;;;6326534;28;20437;-62
2022/12/06 08:31:45;;;;;;;178.80;64.97;;;;;;;;;;6325403;28;20541;-63
2022/12/06 08:34:46;;;;;;;168.13;63.13;;;;;;;;;;6337308;28;20062;-62
2022/12/06 08:37:46;;;;;;;171.77;67.88;;;;;;;;;;6318681;28;20044;-62
2022/12/06 08:40:47;;;;;;;165.32;59.85;;;;;;;;;;6317475;28;20048;-63
2022/12/06 08:43:47;;;;;;;164.40;64.05;;;;;;;;;;6318490;28;20380;-62
2022/12/06 08:46:48;;;;;;;154.75;55.33;;;;;;;;;;6320224;28;20052;-62
2022/12/06 08:49:49;;;;;;;175.80;70.95;;;;;;;;;;6316859;28;20471;-62
2022/12/06 08:52:50;;;;;;;196.23;77.88;;;;;;;;;;6320818;28;20048;-62
2022/12/06 08:55:54;;;;;;;210.23;79.72;;;;;;;;;;6319225;28;20518;-62
2022/12/06 08:58:55;;;;;;;294.08;109.35;;;;;;;;;;6319546;28;20105;-62
2022/12/06 09:01:56;;;;;;;423.63;143.43;;;;;;;;;;6321164;28;20044;-62
2022/12/06 09:04:56;;;;;;;262.38;92.50;;;;;;;;;;6317224;28;20137;-62
2022/12/06 09:07:57;;;;;;;235.90;84.25;;;;;;;;;;6323037;28;20475;-62
2022/12/06 09:10:57;;;;;;;369.63;124.25;;;;;;;;;;6318307;28;20083;-62
2022/12/06 09:13:58;;;;;;;255.32;89.85;;;;;;;;;;6321508;28;20052;-61
2022/12/06 09:16:59;;;;;;;305.23;110.82;;;;;;;;;;6329458;28;20487;-62
2022/12/06 09:19:59;;;;;;;377.85;131.00;;;;;;;;;;6332418;27;20180;-63
2022/12/06 09:23:00;;;;;;;324.55;113.22;;;;;;;;;;6340710;28;20126;-62
2022/12/06 09:26:01;;;;;;;265.70;96.28;;;;;;;;;;6328234;28;20100;-63
2022/12/06 09:29:02;;;;;;;301.73;113.80;;;;;;;;;;6327588;28;20050;-63
2022/12/06 09:32:02;;;;;;;208.40;75.88;;;;;;;;;;6332389;28;20055;-64
2022/12/06 09:35:04;;;;;;;211.18;86.05;;;;;;;;;;6335303;28;20050;-62
2022/12/06 09:38:04;;;;;;;208.13;77.88;;;;;;;;;;6330386;27;20479;-65
2022/12/06 09:41:11;;;;;;;175.18;70.95;;;;;;;;;;6342486;28;20044;-64
2022/12/06 09:44:27;;;;;;;163.88;62.03;;;;;;;;;;6320551;28;20362;-63
2022/12/06 09:47:46;;;;;;;166.52;59.85;;;;;;;;;;6332409;27;20063;-62
2022/12/06 09:51:34;;;;;;;152.57;56.15;;;;;;;;;;6336560;28;20051;-65
2022/12/06 09:54:59;;;;;;;159.63;59.28;;;;;;;;;;6314615;28;20043;-63
2022/12/06 09:58:10;;;;;;;136.45;56.00;;;;;;;;;;6327179;28;20075;-63
2022/12/06 10:01:49;;;;;;;159.23;63.72;;;;;;;;;;6322665;28;20058;-64
2022/12/06 10:05:08;;;;;;;130.20;50.38;;;;;;;;;;6269987;27;20053;-63
2022/12/06 10:08:33;;;;;;;116.78;43.17;;;;;;;;;;6327699;28;20500;-64
2022/12/06 10:11:46;;;;;;;117.07;44.50;;;;;;;;;;6332015;28;20044;-65
2022/12/06 10:15:27;;;;;;;125.65;47.70;;;;;;;;;;6331067;28;20040;-66
2022/12/06 10:19:00;;;;;;;123.50;43.80;;;;;;;;;;6327689;28;20504;-62
2022/12/06 10:22:11;;;;;;;132.75;44.30;;;;;;;;;;6330066;28;20397;-63
2022/12/06 10:25:23;;;;;;;110.55;41.72;;;;;;;;;;6330813;28;20047;-64
2022/12/06 10:28:43;;;;;;;103.25;38.95;;;;;;;;;;6329595;28;20056;-63
2022/12/06 10:31:55;;;;;;;110.72;39.78;;;;;;;;;;6328906;28;20075;-65
2022/12/06 10:35:03;;;;;;;94.05;36.42;;;;;;;;;;6324175;28;20051;-66
2022/12/06 10:38:23;;;;;;;103.53;34.50;;;;;;;;;;6320352;28;20040;-64
2022/12/06 10:41:32;;;;;;;89.40;32.35;;;;;;;;;;6321569;28;20511;-66
2022/12/06 10:44:43;;;;;;;90.20;32.13;;;;;;;;;;6320034;28;20505;-67
2022/12/06 10:47:44;;;;;;;85.50;31.95;;;;;;;;;;6322521;28;20044;-66
2022/12/06 10:50:49;;;;;;;81.32;30.77;;;;;;;;;;6318635;28;20055;-66
2022/12/06 10:53:57;;;;;;;81.78;29.88;;;;;;;;;;6341335;28;20055;-66
2022/12/06 10:57:03;;;;;;;89.70;31.52;;;;;;;;;;6334865;27;20403;-67
2022/12/06 11:00:13;;;;;;;76.90;29.90;;;;;;;;;;6319184;28;20115;-66
2022/12/06 11:03:13;;;;;;;47.53;19.60;;;;;;;;;;6320611;28;20044;-67
2022/12/06 11:06:27;;;;;;;50.38;22.67;;;;;;;;;;6324352;28;20536;-66
2022/12/06 11:09:41;;;;;;;27.08;9.88;;;;;;;;;;6333019;28;20550;-66
2022/12/06 11:12:42;;;;;;;28.20;11.63;;;;;;;;;;6329965;28;20505;-66
2022/12/06 11:15:55;;;;;;;31.58;12.15;;;;;;;;;;6317990;28;20048;-67
2022/12/06 11:19:01;;;;;;;21.02;8.85;;;;;;;;;;6329530;28;20043;-67
2022/12/06 11:22:31;;;;;;;23.85;10.38;;;;;;;;;;6330969;28;20139;-66
2022/12/06 11:25:50;;;;;;;20.10;7.05;;;;;;;;;;6318198;28;20077;-66
2022/12/06 11:29:04;;;;;;;18.20;7.38;;;;;;;;;;6318287;28;20407;-68
2022/12/06 11:32:06;;;;;;;14.45;5.25;;;;;;;;;;6330961;28;20130;-68
2022/12/06 11:35:13;;;;;;;14.98;5.60;;;;;;;;;;6321288;28;20048;-65
2022/12/06 11:38:15;;;;;;;14.70;5.57;;;;;;;;;;6325808;27;20095;-64
2022/12/06 11:41:27;;;;;;;15.75;6.68;;;;;;;;;;6336685;27;20051;-64
2022/12/06 11:44:37;;;;;;;70.68;33.22;;;;;;;;;;6334162;27;20172;-65
2022/12/06 11:47:37;;;;;;;18.90;7.85;;;;;;;;;;6332468;27;20587;-64
2022/12/06 11:50:41;;;;;;;29.38;14.88;;;;;;;;;;6328253;28;20126;-64
2022/12/06 11:53:55;;;;;;;18.30;8.73;;;;;;;;;;6329007;27;21361;-65
2022/12/06 11:57:00;;;;;;;36.92;20.33;;;;;;;;;;6332258;27;20048;-67
2022/12/06 12:00:12;;;;;;;26.25;12.45;;;;;;;;;;6328422;27;20051;-67
2022/12/06 12:03:27;;;;;;;;;;;;;;;;;;6330686;28;20489;-66
2022/12/06 12:06:28;;;;;;;20.08;7.85;;;;;;;;;;6331508;27;20373;-65
2022/12/06 12:09:34;;;;;;;19.80;8.82;;;;;;;;;;6332866;27;20056;-64
2022/12/06 12:16:05;;;;;;;27.13;9.20;;;;;;;;;;6327018;27;21559;-65
2022/12/06 12:19:31;;;;;;;22.40;9.55;;;;;;;;;;6334040;27;20051;-65
2022/12/06 12:22:41;;;;;;;24.48;10.15;;;;;;;;;;6329783;28;20455;-67
2022/12/06 12:25:42;;;;;;;23.17;9.27;;;;;;;;;;6327492;28;20052;-65
2022/12/06 12:28:45;;;;;;;25.80;9.40;;;;;;;;;;6331065;28;20100;-65
2022/12/06 12:31:52;;;;;;;22.35;9.07;;;;;;;;;;6328650;28;20093;-67
2022/12/06 12:34:52;;;;;;;29.30;11.90;;;;;;;;;;6329561;28;20044;-65
2022/12/06 12:37:59;;;;;;;34.97;14.52;;;;;;;;;;6331309;28;20523;-65
2022/12/06 12:41:24;;;;;;;30.52;13.75;;;;;;;;;;6329769;28;20054;-65
2022/12/06 12:44:30;;;;;;;27.25;11.10;;;;;;;;;;6330423;28;20063;-64
2022/12/06 12:47:31;;;;;;;34.85;13.88;;;;;;;;;;6330503;28;21504;-65
2022/12/06 12:50:32;;;;;;;34.88;15.20;;;;;;;;;;6328165;28;20543;-65
2022/12/06 12:53:39;;;;;;;35.45;14.55;;;;;;;;;;6333579;28;20446;-66
2022/12/06 12:56:39;;;;;;;107.93;34.20;;;;;;;;;;6335844;28;20040;-65
2022/12/06 12:59:44;;;;;;;48.45;18.25;;;;;;;;;;6337438;28;20070;-65
2022/12/06 13:02:58;;;;;;;54.25;24.73;;;;;;;;;;6336196;28;20168;-67
2022/12/06 13:06:00;;;;;;;41.75;16.92;;;;;;;;;;6334900;28;21368;-67
2022/12/06 13:09:04;;;;;;;60.67;28.65;;;;;;;;;;6335489;28;20055;-66
2022/12/06 13:12:26;;;;;;;38.60;14.00;;;;;;;;;;6334899;28;20406;-65
2022/12/06 13:15:34;;;;;;;37.42;13.60;;;;;;;;;;6337983;28;20567;-66
2022/12/06 13:18:43;;;;;;;43.28;14.38;;;;;;;;;;6336577;27;20047;-65
2022/12/06 13:21:44;;;;;;;36.10;13.35;;;;;;;;;;6331234;27;20097;-65
2022/12/06 13:25:00;;;;;;;34.88;13.10;;;;;;;;;;6335593;27;20050;-63
2022/12/06 13:28:03;;;;;;;35.78;13.45;;;;;;;;;;6334864;27;20085;-63
2022/12/06 13:31:10;;;;;;;40.70;14.48;;;;;;;;;;6332228;27;20482;-63
2022/12/06 13:34:28;;;;;;;37.90;13.45;;;;;;;;;;6334240;28;20496;-63
2022/12/06 13:37:33;;;;;;;38.28;13.15;;;;;;;;;;6335171;28;20052;-63
2022/12/06 13:40:44;;;;;;;39.55;14.57;;;;;;;;;;6332551;27;20525;-63
2022/12/06 13:43:44;;;;;;;40.97;14.50;;;;;;;;;;6332971;28;20175;-63
2022/12/06 13:46:45;;;;;;;46.50;15.68;;;;;;;;;;6334946;28;20039;-63
2022/12/06 13:49:46;;;;;;;48.17;16.60;;;;;;;;;;6335144;28;20058;-63
2022/12/06 13:52:46;;;;;;;40.67;15.75;;;;;;;;;;6333142;28;20048;-62
2022/12/06 13:56:00;;;;;;;47.05;19.00;;;;;;;;;;6334053;27;20114;-63
2022/12/06 13:59:22;;;;;;;51.28;19.45;;;;;;;;;;6335889;28;20471;-63
2022/12/06 14:02:44;;;;;;;52.30;20.92;;;;;;;;;;6321235;28;20063;-63
2022/12/06 14:06:05;;;;;;;52.20;20.27;;;;;;;;;;6332776;28;20058;-62
2022/12/06 14:09:09;;;;;;;47.67;19.20;;;;;;;;;;6335207;27;20047;-63
2022/12/06 14:12:27;;;;;;;40.70;17.02;;;;;;;;;;6334124;28;20052;-63
2022/12/06 14:15:28;;;;;;;43.25;17.40;;;;;;;;;;6335548;28;20053;-62
2022/12/06 14:18:29;;;;;;;38.97;14.27;;;;;;;;;;6333659;27;20048;-62
2022/12/06 14:21:36;;;;;;;49.63;19.50;;;;;;;;;;6331822;28;20051;-62
2022/12/06 14:24:40;;;;;;;41.70;15.55;;;;;;;;;;6336888;28;20071;-61
2022/12/06 14:27:44;;;;;;;42.40;16.65;;;;;;;;;;6334937;27;20188;-63
2022/12/06 14:30:45;;;;;;;47.53;22.02;;;;;;;;;;6330939;28;20059;-64
2022/12/06 14:33:46;;;;;;;40.92;16.30;;;;;;;;;;6333496;28;20047;-63
2022/12/06 14:36:46;;;;;;;42.75;15.77;;;;;;;;;;6334043;28;20054;-63
2022/12/06 14:39:51;;;;;;;40.47;16.58;;;;;;;;;;6332778;27;20063;-63
2022/12/06 14:43:01;;;;;;;44.38;17.13;;;;;;;;;;6333502;27;21388;-63
2022/12/06 14:46:05;;;;;;;41.17;15.80;;;;;;;;;;6334496;28;20049;-63
2022/12/06 14:53:31;;;;;;;41.75;15.75;;;;;;;;;;6277803;28;20454;-63
2022/12/06 14:56:33;;;;;;;38.72;15.65;;;;;;;;;;6289274;27;20047;-64
2022/12/06 14:59:34;;;;;;;39.75;15.07;;;;;;;;;;6334054;28;20080;-62
2022/12/06 15:02:38;;;;;;;40.08;13.77;;;;;;;;;;6332239;27;20040;-62
2022/12/06 15:05:48;;;;;;;35.95;13.52;;;;;;;;;;6331277;28;20044;-62
2022/12/06 15:08:58;;;;;;;34.38;13.85;;;;;;;;;;6333049;27;20120;-61
2022/12/06 15:16:02;;;;;;;39.53;14.93;;;;;;;;;;6316566;28;20154;-61
2022/12/06 15:19:02;;;;;;;45.05;15.57;;;;;;;;;;6331039;28;20425;-62
2022/12/06 15:22:15;;;;;;;42.28;16.08;;;;;;;;;;6330004;28;20063;-61
2022/12/06 15:25:15;;;;;;;44.92;16.27;;;;;;;;;;6331599;28;20130;-62
2022/12/06 15:28:16;;;;;;;39.65;17.10;;;;;;;;;;6331776;28;20052;-63
2022/12/06 15:31:20;;;;;;;43.33;16.70;;;;;;;;;;6331929;27;20039;-62
2022/12/06 15:34:29;;;;;;;46.33;16.92;;;;;;;;;;6333118;28;20066;-63
2022/12/06 15:37:30;;;;;;;47.22;16.75;;;;;;;;;;6333266;28;20051;-63
2022/12/06 15:40:30;;;;;;;43.58;18.08;;;;;;;;;;6329643;28;20256;-63
2022/12/06 15:43:33;;;;;;;48.47;18.77;;;;;;;;;;6331332;28;20909;-63
2022/12/06 15:46:34;;;;;;;;;;;;;;;;;;6333918;28;20050;-62
2022/12/06 15:49:36;;;;;;;37.90;15.00;;;;;;;;;;6329937;28;19923;-63
2022/12/06 15:52:38;;;;;;;33.38;15.43;;;;;;;;;;6330552;28;20055;-63
2022/12/06 15:55:39;;;;;;;47.72;19.50;;;;;;;;;;6333166;28;20048;-62
2022/12/06 15:58:43;;;;;;;35.65;14.13;;;;;;;;;;6331934;28;20058;-63
2022/12/06 16:01:46;;;;;;;38.85;14.88;;;;;;;;;;6329192;27;20054;-63
2022/12/06 16:04:49;;;;;;;40.38;14.77;;;;;;;;;;6331857;28;20059;-64
2022/12/06 16:07:50;;;;;;;30.25;11.63;;;;;;;;;;6331359;28;20116;-64
2022/12/06 16:10:50;;;;;;;23.83;9.45;;;;;;;;;;6329178;28;20043;-63
2022/12/06 16:13:51;;;;;;;28.27;11.38;;;;;;;;;;6330346;28;20197;-64
2022/12/06 16:16:52;;;;;;;23.85;9.68;;;;;;;;;;6332619;27;20077;-63
2022/12/06 16:26:40;;;;;;;23.48;9.23;;;;;;;;;;6332245;28;20054;-64
2022/12/06 16:29:41;;;;;;;27.58;9.13;;;;;;;;;;6326819;28;20124;-63
2022/12/06 16:32:41;;;;;;;26.92;8.85;;;;;;;;;;6326028;28;20256;-64
2022/12/06 16:35:43;;;;;;;25.23;9.65;;;;;;;;;;6330396;28;20132;-65
2022/12/06 16:38:44;;;;;;;24.15;8.60;;;;;;;;;;6330662;28;20043;-64
2022/12/06 16:41:45;;;;;;;26.95;9.15;;;;;;;;;;6329271;28;20134;-62
2022/12/06 16:44:51;;;;;;;27.45;8.93;;;;;;;;;;6328805;28;20181;-63
2022/12/06 16:47:52;;;;;;;27.00;9.73;;;;;;;;;;6331394;28;20052;-64
2022/12/06 16:50:53;;;;;;;35.20;11.68;;;;;;;;;;6330439;28;20159;-70
2022/12/06 16:53:53;;;;;;;33.72;11.77;;;;;;;;;;6329768;28;20055;-65
2022/12/06 16:56:54;;;;;;;39.97;13.65;;;;;;;;;;6331500;28;20050;-65
2022/12/06 16:59:54;;;;;;;33.40;11.10;;;;;;;;;;6329767;28;20761;-65
2022/12/06 17:02:55;;;;;;;35.20;11.73;;;;;;;;;;6329408;28;20158;-63
2022/12/06 17:05:56;;;;;;;35.22;11.35;;;;;;;;;;6331060;28;20336;-65
2022/12/06 17:08:57;;;;;;;32.80;10.93;;;;;;;;;;6330458;28;20163;-68
2022/12/06 17:12:05;;;;;;;37.55;10.82;;;;;;;;;;6328268;28;20831;-63
2022/12/06 17:15:06;;;;;;;34.72;10.63;;;;;;;;;;6328728;28;20084;-65
2022/12/06 17:18:07;;;;;;;38.60;11.73;;;;;;;;;;6332210;28;20462;-64
2022/12/06 17:21:08;;;;;;;35.80;12.45;;;;;;;;;;6330393;28;20135;-65
2022/12/06 17:24:08;;;;;;;42.10;13.20;;;;;;;;;;6329802;28;20391;-63
2022/12/06 17:27:12;;;;;;;39.17;13.18;;;;;;;;;;6329293;28;20634;-64
2022/12/06 17:30:18;;;;;;;42.85;13.68;;;;;;;;;;6325366;28;20054;-65
2022/12/06 17:33:18;;;;;;;43.08;14.52;;;;;;;;;;6326134;28;20083;-64
2022/12/06 17:36:19;;;;;;;50.00;14.77;;;;;;;;;;6330192;28;20070;-63
2022/12/06 17:39:21;;;;;;;47.05;16.02;;;;;;;;;;6333591;28;20059;-66
2022/12/06 17:45:41;;;;;;;56.67;17.83;;;;;;;;;;6334500;28;20054;-67
2022/12/06 17:48:42;;;;;;;51.75;16.98;;;;;;;;;;6336076;27;20438;-66
2022/12/06 17:51:43;;;;;;;73.63;22.55;;;;;;;;;;6332927;27;20103;-66
2022/12/06 17:54:43;;;;;;;68.32;19.00;;;;;;;;;;6333671;28;20112;-67
2022/12/06 17:57:44;;;;;;;59.95;18.27;;;;;;;;;;6335669;28;20036;-66
2022/12/06 18:00:45;;;;;;;56.00;17.45;;;;;;;;;;6331988;28;20047;-63
2022/12/06 18:03:45;;;;;;;51.70;16.88;;;;;;;;;;6331912;28;20127;-64
2022/12/06 18:06:46;;;;;;;57.55;17.52;;;;;;;;;;6333328;28;20062;-63
2022/12/06 18:09:47;;;;;;;63.92;19.63;;;;;;;;;;6333519;28;20071;-65
2022/12/06 18:12:48;;;;;;;59.55;19.58;;;;;;;;;;6334138;27;20052;-63
2022/12/06 18:15:49;;;;;;;62.63;18.05;;;;;;;;;;6334315;28;20048;-63
2022/12/06 18:18:53;;;;;;;62.05;19.75;;;;;;;;;;6336496;28;20051;-68
2022/12/06 18:21:53;;;;;;;64.13;20.52;;;;;;;;;;6331149;27;20138;-63
2022/12/06 18:24:54;;;;;;;64.65;19.60;;;;;;;;;;6338706;27;20058;-66
2022/12/06 18:27:54;;;;;;;57.67;18.52;;;;;;;;;;6337030;27;20413;-62
2022/12/06 18:30:55;;;;;;;55.65;19.63;;;;;;;;;;6337529;27;21414;-63
2022/12/06 18:33:57;;;;;;;51.72;16.27;;;;;;;;;;6336139;27;20059;-62